Weather History for KI75 - January, 2014

Change the Weather History Date:

Tuesday, January 28, 2014

  Actual Average (KLWD) Record (KLWD)
Temperature  
Mean Temperature 6 °F 25 °F  
Max Temperature 18 °F 34 °F 60 °F (2013)
Min Temperature -6 °F 16 °F -14 °F (1977)
Degree Days  
Heating Degree Days 59 40  
Month to date heating degree days 1145  
Since 1 July heating degree days 3574  
Cooling Degree Days 0 0  
Month to date cooling degree days 0  
Year to date cooling degree days 0  
Moisture  
Dew Point -9 °F    
Average Humidity 55    
Maximum Humidity 76    
Minimum Humidity 32    
Precipitation  
Precipitation 0.00 in 0.03 in 0.68 in (1989)
Month to date precipitation 0.62  
Sea Level Pressure  
Sea Level Pressure 30.35 in    
Wind  
Wind Speed 7 mph (WSW)    
Max Wind Speed 18 mph    
Max Gust Speed 23 mph    
Visibility 10 miles    
Events      
T = Trace of Precipitation, MM = Missing Value Source: NWS Daily Summary

Daily Weather History Graph

Daily Weather History Graph

Search for Another Location

Airport or City:

Trip Planner

Search our weather history database for the weather conditions in past years. The results will help you decide how hot, cold, wet, or windy it might be!

Date:

Astronomy

Jan. 28, 2014 Rise Set
Actual Time 7:29 AM CST 5:26 PM CST
Civil Twilight 6:59 AM CST 5:56 PM CST
Nautical Twilight 6:26 AM CST 6:29 PM CST
Astronomical Twilight 5:54 AM CST 7:01 PM CST
Moon 5:11 AM CST 3:17 PM CST
Length of Visible Light 10h 56m
Length of Day
9h 57m
Waning Crescent, 7% of the Moon is Illuminated
Jan 28
Waning Crescent
Jan 30
New
Feb 6
First Quarter
Feb 14
Full
Feb 22
Last Quarter

Hourly Weather History & Observations

Time (CST) Temp. Windchill Dew Point Humidity Pressure Visibility Wind Dir Wind Speed Gust Speed Precip Events Conditions
12:15 AM -3.5 °F -13.9 °F -11.7 °F 68% 30.45 in 10.0 mi West 4.6 mph - N/A   Clear
12:35 AM -3.6 °F -15.9 °F -11.7 °F 68% 30.45 in 10.0 mi WSW 5.8 mph - N/A   Clear
12:55 AM -4.0 °F -14.6 °F -12.1 °F 68% 30.45 in 10.0 mi WSW 4.6 mph - N/A   Clear
1:15 AM -5.8 °F -16.7 °F -12.1 °F 74% 30.44 in 10.0 mi SW 4.6 mph - N/A   Clear
1:35 AM -5.4 °F -16.2 °F -11.6 °F 75% 30.44 in 10.0 mi WSW 4.6 mph - N/A   Clear
1:55 AM -4.9 °F -17.4 °F -11.7 °F 72% 30.43 in 10.0 mi West 5.8 mph - N/A   Clear
2:15 AM -5.1 °F -17.6 °F -11.9 °F 72% 30.44 in 10.0 mi WSW 5.8 mph - N/A   Clear
2:35 AM -6.5 °F -19.3 °F -12.6 °F 75% 30.43 in 10.0 mi SW 5.8 mph - N/A   Clear
2:55 AM -6.3 °F -17.3 °F -12.5 °F 75% 30.43 in 10.0 mi WSW 4.6 mph - N/A   Clear
3:15 AM -6.7 °F -19.5 °F -12.8 °F 75% 30.43 in 10.0 mi WSW 5.8 mph - N/A   Clear
3:35 AM -6.3 °F -17.3 °F -12.8 °F 73% 30.42 in 10.0 mi WSW 4.6 mph - N/A   Clear
3:55 AM -6.0 °F -16.9 °F -12.3 °F 74% 30.42 in 10.0 mi WSW 4.6 mph - N/A   Clear
4:15 AM -5.6 °F -16.5 °F -12.5 °F 72% 30.42 in 10.0 mi West 4.6 mph - N/A   Clear
4:35 AM -5.8 °F -18.4 °F -12.6 °F 72% 30.42 in 10.0 mi West 5.8 mph - N/A   Clear
4:55 AM -5.8 °F -16.7 °F -12.5 °F 73% 30.42 in 10.0 mi West 4.6 mph - N/A   Clear
5:15 AM -5.3 °F -17.8 °F -12.3 °F 72% 30.43 in 10.0 mi West 5.8 mph - N/A   Clear
5:35 AM -4.9 °F -15.6 °F -12.1 °F 71% 30.43 in 10.0 mi SW 4.6 mph - N/A   Clear
5:55 AM -4.9 °F -13.4 °F -12.1 °F 71% 30.43 in 10.0 mi WSW 3.5 mph - N/A   Clear
6:15 AM -5.4 °F -18.0 °F -12.8 °F 70% 30.43 in 10.0 mi WSW 5.8 mph - N/A   Clear
6:35 AM -5.8 °F -14.5 °F -12.8 °F 72% 30.43 in 10.0 mi WSW 3.5 mph - N/A   Clear
6:55 AM -5.8 °F -16.7 °F -13.0 °F 71% 30.43 in 10.0 mi WSW 4.6 mph - N/A   Clear
7:15 AM -5.6 °F -14.3 °F -12.8 °F 71% 30.43 in 10.0 mi SW 3.5 mph - N/A   Clear
7:35 AM -6.3 °F -15.1 °F -13.0 °F 73% 30.43 in 10.0 mi SSW 3.5 mph - N/A   Clear
7:55 AM -6.5 °F -17.5 °F -12.3 °F 76% 30.43 in 10.0 mi SSW 4.6 mph - N/A   Clear
8:15 AM -3.6 °F - -9.6 °F 76% 30.42 in 10.0 mi Calm Calm - N/A   Clear
8:35 AM -2.0 °F -10.1 °F -9.2 °F 71% 30.42 in 10.0 mi SW 3.5 mph - N/A   Clear
8:55 AM 0.3 °F -11.2 °F -7.2 °F 70% 30.42 in 10.0 mi SW 5.8 mph - N/A   Clear
9:15 AM 3.2 °F -7.8 °F -6.2 °F 65% 30.42 in 10.0 mi SW 5.8 mph - N/A   Clear
9:35 AM 5.4 °F -6.5 °F -4.7 °F 63% 30.42 in 10.0 mi SW 6.9 mph - N/A   Clear
9:55 AM 7.2 °F -8.1 °F -4.4 °F 59% 30.42 in 10.0 mi WSW 11.5 mph - N/A   Clear
10:15 AM 9.1 °F -4.9 °F -5.4 °F 52% 30.42 in 10.0 mi West 10.4 mph - N/A   Clear
10:35 AM 10.2 °F -5.0 °F -5.8 °F 49% 30.42 in 10.0 mi West 12.7 mph - N/A   Clear
10:55 AM 10.8 °F -2.8 °F -6.3 °F 46% 30.41 in 10.0 mi West 10.4 mph - N/A   Clear
11:15 AM 12.0 °F -1.3 °F -7.6 °F 41% 30.40 in 10.0 mi West 10.4 mph 19.6 mph N/A   Clear
11:35 AM 13.3 °F -1.1 °F -6.9 °F 40% 30.38 in 10.0 mi WSW 12.7 mph 18.4 mph N/A   Clear
11:55 AM 14.0 °F -2.0 °F -7.2 °F 38% 30.37 in 10.0 mi West 16.1 mph 21.9 mph N/A   Scattered Clouds
12:15 PM 14.2 °F -0.6 °F -7.1 °F 39% 30.36 in 10.0 mi West 13.8 mph 17.3 mph N/A   Clear
12:35 PM 14.9 °F -1.3 °F -8.0 °F 36% 30.35 in 10.0 mi West 17.3 mph 23.0 mph N/A   Scattered Clouds
12:55 PM 16.0 °F 0.6 °F -7.2 °F 35% 30.34 in 10.0 mi WSW 16.1 mph 21.9 mph N/A   Clear
1:15 PM 16.3 °F 0.5 °F -7.4 °F 35% 30.33 in 10.0 mi West 17.3 mph - N/A   Mostly Cloudy
1:35 PM 16.9 °F 2.8 °F -7.1 °F 34% 30.32 in 10.0 mi West 13.8 mph 20.7 mph N/A   Scattered Clouds
1:55 PM 16.7 °F 2.0 °F -7.2 °F 34% 30.31 in 10.0 mi West 15.0 mph 23.0 mph N/A   Mostly Cloudy
2:15 PM 17.2 °F 3.9 °F -7.2 °F 34% 30.30 in 10.0 mi West 12.7 mph 18.4 mph N/A   Mostly Cloudy
2:35 PM 17.4 °F 1.5 °F -7.4 °F 33% 30.29 in 10.0 mi WNW 18.4 mph 21.9 mph N/A   Scattered Clouds
2:55 PM 18.0 °F 4.2 °F -7.8 °F 32% 30.28 in 10.0 mi West 13.8 mph - N/A   Scattered Clouds
3:15 PM 16.9 °F 2.3 °F -8.0 °F 33% 30.28 in 10.0 mi WNW 15.0 mph 21.9 mph N/A   Scattered Clouds
3:35 PM 16.9 °F 2.3 °F -8.1 °F 33% 30.28 in 10.0 mi West 15.0 mph 23.0 mph N/A   Clear
3:55 PM 17.1 °F 2.0 °F -8.3 °F 32% 30.27 in 10.0 mi West 16.1 mph 19.6 mph N/A   Clear
4:15 PM 16.7 °F 1.0 °F -8.5 °F 32% 30.28 in 10.0 mi West 17.3 mph 21.9 mph N/A   Clear
4:35 PM 16.3 °F 1.6 °F -8.7 °F 33% 30.28 in 10.0 mi West 15.0 mph - N/A   Clear
4:55 PM 15.6 °F 1.2 °F -8.7 °F 34% 30.28 in 10.0 mi West 13.8 mph 17.3 mph N/A   Clear
5:15 PM 14.5 °F 3.6 °F -9.0 °F 35% 30.28 in 10.0 mi West 8.1 mph - N/A   Clear
5:35 PM 12.0 °F 1.5 °F -8.5 °F 40% 30.28 in 10.0 mi West 6.9 mph - N/A   Clear
5:55 PM 11.1 °F 0.4 °F -8.5 °F 41% 30.28 in 10.0 mi West 6.9 mph - N/A   Clear
6:15 PM 10.0 °F 1.8 °F -8.5 °F 43% 30.27 in 10.0 mi West 4.6 mph - N/A   Clear
6:35 PM 8.8 °F 0.4 °F -8.5 °F 46% 30.27 in 10.0 mi West 4.6 mph - N/A   Clear
6:55 PM 7.2 °F -3.0 °F -8.0 °F 50% 30.27 in 10.0 mi West 5.8 mph - N/A   Clear
7:15 PM 9.5 °F 1.2 °F -8.5 °F 44% 30.26 in 10.0 mi WSW 4.6 mph - N/A   Clear
7:35 PM 8.6 °F 0.1 °F -8.5 °F 46% 30.27 in 10.0 mi WSW 4.6 mph - N/A   Clear
7:55 PM 7.7 °F -2.4 °F -8.0 °F 49% 30.27 in 10.0 mi SW 5.8 mph - N/A   Clear
8:15 PM 7.5 °F -1.1 °F -7.6 °F 50% 30.26 in 10.0 mi WSW 4.6 mph - N/A   Clear
8:35 PM 6.8 °F -2.0 °F -7.6 °F 52% 30.26 in 10.0 mi SW 4.6 mph - N/A   Clear
8:55 PM 5.9 °F -4.5 °F -7.6 °F 54% 30.26 in 10.0 mi WSW 5.8 mph - N/A   Clear
9:15 PM 6.6 °F -0.3 °F -7.6 °F 52% 30.26 in 10.0 mi SW 3.5 mph - N/A   Clear
9:35 PM 5.4 °F -5.2 °F -7.6 °F 55% 30.25 in 10.0 mi SW 5.8 mph - N/A   Clear
9:55 PM 5.5 °F -5.0 °F -7.4 °F 55% 30.25 in 10.0 mi SW 5.8 mph - N/A   Clear
10:15 PM 5.2 °F -3.8 °F -7.6 °F 56% 30.25 in 10.0 mi WSW 4.6 mph - N/A   Clear
10:35 PM 6.1 °F -2.8 °F -7.6 °F 53% 30.25 in 10.0 mi SW 4.6 mph - N/A   Clear
10:55 PM 3.9 °F -5.3 °F -7.6 °F 59% 30.25 in 10.0 mi SW 4.6 mph - N/A   Clear
11:15 PM 3.0 °F -8.0 °F -8.0 °F 60% 30.25 in 10.0 mi SSW 5.8 mph - N/A   Clear
11:35 PM 2.8 °F -9.5 °F -7.8 °F 61% 30.24 in 10.0 mi SSW 6.9 mph - N/A   Clear
11:55 PM 2.1 °F -10.4 °F -7.6 °F 64% 30.23 in 10.0 mi SSW 6.9 mph - N/A   Clear